sensor_id;sensor_type;location;lat;lon;timestamp;pressure;altitude;pressure_sealevel;temperature;humidity
11077;BME280;5591;42.626;23.380;2023-04-03T00:01:54;93591.28;;;9.42;100.00
11077;BME280;5591;42.626;23.380;2023-04-03T00:04:21;93591.50;;;9.34;100.00
11077;BME280;5591;42.626;23.380;2023-04-03T00:06:48;93515.53;;;8.74;100.00
11077;BME280;5591;42.626;23.380;2023-04-03T00:09:15;93586.03;;;9.35;100.00
11077;BME280;5591;42.626;23.380;2023-04-03T00:11:43;93579.16;;;9.28;100.00
11077;BME280;5591;42.626;23.380;2023-04-03T00:14:10;93581.44;;;9.37;100.00
11077;BME280;5591;42.626;23.380;2023-04-03T00:16:36;93575.19;;;9.38;100.00
11077;BME280;5591;42.626;23.380;2023-04-03T00:19:03;93573.13;;;9.27;100.00
11077;BME280;5591;42.626;23.380;2023-04-03T00:21:30;93568.06;;;9.19;100.00
11077;BME280;5591;42.626;23.380;2023-04-03T00:23:57;93575.09;;;9.19;100.00
11077;BME280;5591;42.626;23.380;2023-04-03T00:26:24;93572.91;;;9.22;100.00
11077;BME280;5591;42.626;23.380;2023-04-03T00:28:52;93582.38;;;9.23;100.00
11077;BME280;5591;42.626;23.380;2023-04-03T00:31:18;93572.22;;;8.94;100.00
11077;BME280;5591;42.626;23.380;2023-04-03T00:33:45;93575.91;;;9.13;100.00
11077;BME280;5591;42.626;23.380;2023-04-03T00:36:12;93585.56;;;9.19;100.00
11077;BME280;5591;42.626;23.380;2023-04-03T00:38:39;93577.97;;;9.24;100.00
11077;BME280;5591;42.626;23.380;2023-04-03T00:41:06;93577.16;;;9.36;100.00
11077;BME280;5591;42.626;23.380;2023-04-03T00:43:33;93573.28;;;9.13;100.00
11077;BME280;5591;42.626;23.380;2023-04-03T00:46:01;93490.56;;;8.65;100.00
11077;BME280;5591;42.626;23.380;2023-04-03T00:48:31;93575.28;;;9.11;100.00
11077;BME280;5591;42.626;23.380;2023-04-03T00:50:59;93571.38;;;8.94;100.00
11077;BME280;5591;42.626;23.380;2023-04-03T00:53:29;93577.03;;;8.97;100.00
11077;BME280;5591;42.626;23.380;2023-04-03T00:55:58;93574.91;;;8.73;100.00
11077;BME280;5591;42.626;23.380;2023-04-03T00:58:34;93582.22;;;8.84;100.00
11077;BME280;5591;42.626;23.380;2023-04-03T01:01:07;93578.50;;;8.72;100.00
11077;BME280;5591;42.626;23.380;2023-04-03T01:03:35;93573.53;;;8.84;100.00
11077;BME280;5591;42.626;23.380;2023-04-03T01:06:02;93580.31;;;8.72;100.00
11077;BME280;5591;42.626;23.380;2023-04-03T01:08:30;93578.31;;;8.74;100.00
11077;BME280;5591;42.626;23.380;2023-04-03T01:10:57;93577.47;;;8.67;100.00
11077;BME280;5591;42.626;23.380;2023-04-03T01:13:26;93580.47;;;8.64;100.00
11077;BME280;5591;42.626;23.380;2023-04-03T01:15:53;93572.59;;;8.57;100.00
11077;BME280;5591;42.626;23.380;2023-04-03T01:18:22;93579.72;;;8.70;100.00
11077;BME280;5591;42.626;23.380;2023-04-03T01:21:21;93573.44;;;8.64;100.00
11077;BME280;5591;42.626;23.380;2023-04-03T01:24:33;93578.72;;;8.71;100.00
11077;BME280;5591;42.626;23.380;2023-04-03T01:27:01;93573.09;;;8.74;100.00
11077;BME280;5591;42.626;23.380;2023-04-03T01:29:29;93571.03;;;8.69;100.00
11077;BME280;5591;42.626;23.380;2023-04-03T01:31:58;93584.47;;;8.60;100.00
11077;BME280;5591;42.626;23.380;2023-04-03T01:34:27;93502.06;;;8.09;100.00
11077;BME280;5591;42.626;23.380;2023-04-03T01:36:54;93589.50;;;8.61;100.00
11077;BME280;5591;42.626;23.380;2023-04-03T01:39:20;93584.53;;;8.66;100.00
11077;BME280;5591;42.626;23.380;2023-04-03T01:41:47;93576.84;;;8.65;100.00
11077;BME280;5591;42.626;23.380;2023-04-03T01:44:14;93591.84;;;8.50;100.00
11077;BME280;5591;42.626;23.380;2023-04-03T01:46:41;93574.09;;;8.39;100.00
11077;BME280;5591;42.626;23.380;2023-04-03T01:49:09;93517.63;;;7.89;100.00
11077;BME280;5591;42.626;23.380;2023-04-03T01:51:36;93494.00;;;7.76;100.00
11077;BME280;5591;42.626;23.380;2023-04-03T01:54:03;93539.59;;;8.22;100.00
11077;BME280;5591;42.626;23.380;2023-04-03T01:56:30;93591.16;;;8.62;100.00
11077;BME280;5591;42.626;23.380;2023-04-03T01:58:57;93594.88;;;8.47;100.00
11077;BME280;5591;42.626;23.380;2023-04-03T02:01:24;93594.22;;;8.45;100.00
11077;BME280;5591;42.626;23.380;2023-04-03T02:03:52;93586.72;;;8.35;100.00
11077;BME280;5591;42.626;23.380;2023-04-03T02:06:20;93581.06;;;8.11;100.00
11077;BME280;5591;42.626;23.380;2023-04-03T02:08:47;93556.81;;;7.89;100.00
11077;BME280;5591;42.626;23.380;2023-04-03T02:11:14;93578.59;;;8.03;100.00
11077;BME280;5591;42.626;23.380;2023-04-03T02:13:41;93578.97;;;8.00;100.00
11077;BME280;5591;42.626;23.380;2023-04-03T02:16:09;93582.97;;;7.96;100.00
11077;BME280;5591;42.626;23.380;2023-04-03T02:18:37;93587.06;;;8.05;100.00
11077;BME280;5591;42.626;23.380;2023-04-03T02:21:04;93539.94;;;7.71;100.00
11077;BME280;5591;42.626;23.380;2023-04-03T02:23:32;93576.44;;;7.85;100.00
11077;BME280;5591;42.626;23.380;2023-04-03T02:26:06;93579.41;;;8.03;100.00
11077;BME280;5591;42.626;23.380;2023-04-03T02:28:33;93577.63;;;8.04;100.00
11077;BME280;5591;42.626;23.380;2023-04-03T02:31:00;93565.03;;;7.93;100.00
11077;BME280;5591;42.626;23.380;2023-04-03T02:33:27;93568.66;;;7.92;100.00
11077;BME280;5591;42.626;23.380;2023-04-03T02:35:54;93566.75;;;7.79;100.00
11077;BME280;5591;42.626;23.380;2023-04-03T02:38:22;93572.41;;;7.83;100.00
11077;BME280;5591;42.626;23.380;2023-04-03T02:40:50;93574.22;;;7.82;100.00
11077;BME280;5591;42.626;23.380;2023-04-03T02:43:17;93534.09;;;7.06;100.00
11077;BME280;5591;42.626;23.380;2023-04-03T02:45:44;93575.19;;;7.39;100.00
11077;BME280;5591;42.626;23.380;2023-04-03T02:48:11;93575.44;;;7.44;100.00
11077;BME280;5591;42.626;23.380;2023-04-03T02:50:37;93573.06;;;7.28;100.00
11077;BME280;5591;42.626;23.380;2023-04-03T02:53:04;93570.13;;;7.17;100.00
11077;BME280;5591;42.626;23.380;2023-04-03T02:55:31;93564.31;;;7.01;100.00
11077;BME280;5591;42.626;23.380;2023-04-03T02:57:59;93554.34;;;7.04;100.00
11077;BME280;5591;42.626;23.380;2023-04-03T03:00:26;93524.16;;;6.81;100.00
11077;BME280;5591;42.626;23.380;2023-04-03T03:02:52;93552.50;;;7.19;100.00
11077;BME280;5591;42.626;23.380;2023-04-03T03:05:19;93545.91;;;7.23;100.00
11077;BME280;5591;42.626;23.380;2023-04-03T03:07:46;93544.75;;;7.26;100.00
11077;BME280;5591;42.626;23.380;2023-04-03T03:10:14;93531.72;;;7.26;100.00
11077;BME280;5591;42.626;23.380;2023-04-03T03:12:40;93539.22;;;7.35;100.00
11077;BME280;5591;42.626;23.380;2023-04-03T03:15:09;93538.28;;;7.42;100.00
11077;BME280;5591;42.626;23.380;2023-04-03T03:17:36;93556.94;;;7.39;100.00
11077;BME280;5591;42.626;23.380;2023-04-03T03:20:04;93537.66;;;7.20;100.00
11077;BME280;5591;42.626;23.380;2023-04-03T03:22:32;93534.91;;;7.07;100.00
11077;BME280;5591;42.626;23.380;2023-04-03T03:24:59;93537.13;;;7.10;100.00
11077;BME280;5591;42.626;23.380;2023-04-03T03:27:26;93542.31;;;7.24;100.00
11077;BME280;5591;42.626;23.380;2023-04-03T03:29:52;93541.97;;;7.13;100.00
11077;BME280;5591;42.626;23.380;2023-04-03T03:32:20;93535.34;;;7.10;100.00
11077;BME280;5591;42.626;23.380;2023-04-03T03:34:47;93539.13;;;7.08;100.00
11077;BME280;5591;42.626;23.380;2023-04-03T03:37:14;93544.09;;;7.03;100.00
11077;BME280;5591;42.626;23.380;2023-04-03T03:39:41;93515.63;;;6.87;100.00
11077;BME280;5591;42.626;23.380;2023-04-03T03:42:08;93536.28;;;7.03;100.00
11077;BME280;5591;42.626;23.380;2023-04-03T03:44:34;93533.47;;;7.04;100.00
11077;BME280;5591;42.626;23.380;2023-04-03T03:47:01;93543.69;;;7.20;100.00
11077;BME280;5591;42.626;23.380;2023-04-03T03:49:29;93538.72;;;6.90;100.00
11077;BME280;5591;42.626;23.380;2023-04-03T03:51:56;93540.22;;;6.99;100.00
11077;BME280;5591;42.626;23.380;2023-04-03T03:54:23;93538.53;;;6.91;100.00
11077;BME280;5591;42.626;23.380;2023-04-03T03:56:50;93532.72;;;6.89;100.00
11077;BME280;5591;42.626;23.380;2023-04-03T03:59:17;93544.28;;;7.01;100.00
11077;BME280;5591;42.626;23.380;2023-04-03T04:01:43;93553.09;;;7.00;100.00
11077;BME280;5591;42.626;23.380;2023-04-03T04:04:10;93548.59;;;6.94;100.00
11077;BME280;5591;42.626;23.380;2023-04-03T04:06:38;93541.31;;;6.90;100.00
11077;BME280;5591;42.626;23.380;2023-04-03T04:09:05;93539.25;;;6.85;100.00
11077;BME280;5591;42.626;23.380;2023-04-03T04:11:32;93541.59;;;6.95;100.00
11077;BME280;5591;42.626;23.380;2023-04-03T04:13:59;93551.31;;;6.86;100.00
11077;BME280;5591;42.626;23.380;2023-04-03T04:16:26;93556.41;;;6.94;100.00
11077;BME280;5591;42.626;23.380;2023-04-03T04:18:53;93554.19;;;6.91;100.00
11077;BME280;5591;42.626;23.380;2023-04-03T04:21:20;93547.31;;;7.05;100.00
11077;BME280;5591;42.626;23.380;2023-04-03T04:23:48;93549.91;;;7.19;100.00
11077;BME280;5591;42.626;23.380;2023-04-03T04:26:14;93551.28;;;7.36;100.00
11077;BME280;5591;42.626;23.380;2023-04-03T04:28:41;93548.66;;;7.57;100.00
11077;BME280;5591;42.626;23.380;2023-04-03T04:31:08;93549.81;;;7.75;100.00
11077;BME280;5591;42.626;23.380;2023-04-03T04:33:35;93551.53;;;7.83;100.00
11077;BME280;5591;42.626;23.380;2023-04-03T04:36:02;93557.84;;;7.95;100.00
11077;BME280;5591;42.626;23.380;2023-04-03T04:38:28;93512.28;;;7.55;100.00
11077;BME280;5591;42.626;23.380;2023-04-03T04:40:57;93557.56;;;8.11;100.00
11077;BME280;5591;42.626;23.380;2023-04-03T04:43:23;93562.41;;;8.14;100.00
11077;BME280;5591;42.626;23.380;2023-04-03T04:46:00;93562.50;;;8.48;100.00
11077;BME280;5591;42.626;23.380;2023-04-03T04:48:27;93562.94;;;8.58;100.00
11077;BME280;5591;42.626;23.380;2023-04-03T04:50:53;93576.78;;;8.52;100.00
11077;BME280;5591;42.626;23.380;2023-04-03T04:53:20;93583.59;;;8.46;100.00
11077;BME280;5591;42.626;23.380;2023-04-03T04:55:47;93570.38;;;8.54;100.00
11077;BME280;5591;42.626;23.380;2023-04-03T04:58:15;93573.03;;;8.61;100.00
11077;BME280;5591;42.626;23.380;2023-04-03T05:00:42;93575.63;;;8.61;100.00
11077;BME280;5591;42.626;23.380;2023-04-03T05:03:09;93596.56;;;8.61;100.00
11077;BME280;5591;42.626;23.380;2023-04-03T05:05:36;93519.53;;;8.08;100.00
11077;BME280;5591;42.626;23.380;2023-04-03T05:08:03;93606.25;;;8.39;100.00
11077;BME280;5591;42.626;23.380;2023-04-03T05:10:30;93608.44;;;8.63;100.00
11077;BME280;5591;42.626;23.380;2023-04-03T05:12:57;93611.34;;;8.81;100.00
11077;BME280;5591;42.626;23.380;2023-04-03T05:15:25;93599.56;;;8.58;100.00
11077;BME280;5591;42.626;23.380;2023-04-03T05:17:52;93604.78;;;8.92;100.00
11077;BME280;5591;42.626;23.380;2023-04-03T05:20:19;93611.19;;;9.30;100.00
11077;BME280;5591;42.626;23.380;2023-04-03T05:22:46;93600.50;;;9.18;100.00
11077;BME280;5591;42.626;23.380;2023-04-03T05:25:12;93603.91;;;9.19;100.00
11077;BME280;5591;42.626;23.380;2023-04-03T05:27:39;93600.66;;;9.17;100.00
11077;BME280;5591;42.626;23.380;2023-04-03T05:30:07;93593.41;;;9.72;100.00
11077;BME280;5591;42.626;23.380;2023-04-03T05:32:35;93603.13;;;9.91;100.00
11077;BME280;5591;42.626;23.380;2023-04-03T05:35:03;93598.53;;;10.06;100.00
11077;BME280;5591;42.626;23.380;2023-04-03T05:37:29;93585.63;;;10.37;100.00
11077;BME280;5591;42.626;23.380;2023-04-03T05:39:56;93586.41;;;10.63;100.00
11077;BME280;5591;42.626;23.380;2023-04-03T05:42:23;93590.81;;;10.82;100.00
11077;BME280;5591;42.626;23.380;2023-04-03T05:44:50;93593.44;;;10.89;100.00
11077;BME280;5591;42.626;23.380;2023-04-03T05:47:17;93591.34;;;11.10;100.00
11077;BME280;5591;42.626;23.380;2023-04-03T05:49:45;93588.72;;;11.10;100.00
11077;BME280;5591;42.626;23.380;2023-04-03T05:52:19;93587.38;;;11.45;100.00
11077;BME280;5591;42.626;23.380;2023-04-03T05:54:47;93580.50;;;11.51;100.00
11077;BME280;5591;42.626;23.380;2023-04-03T05:57:13;93576.63;;;11.60;100.00
11077;BME280;5591;42.626;23.380;2023-04-03T05:59:41;93587.16;;;11.91;99.70
11077;BME280;5591;42.626;23.380;2023-04-03T06:02:10;93573.81;;;11.92;97.77
11077;BME280;5591;42.626;23.380;2023-04-03T06:04:36;93575.03;;;11.90;97.31
11077;BME280;5591;42.626;23.380;2023-04-03T06:07:05;93569.63;;;11.85;96.67
11077;BME280;5591;42.626;23.380;2023-04-03T06:09:32;93564.75;;;12.13;96.13
11077;BME280;5591;42.626;23.380;2023-04-03T06:11:59;93564.66;;;12.50;93.91
11077;BME280;5591;42.626;23.380;2023-04-03T06:14:27;93536.38;;;12.45;91.63
11077;BME280;5591;42.626;23.380;2023-04-03T06:16:54;93569.75;;;12.94;91.85
11077;BME280;5591;42.626;23.380;2023-04-03T06:19:21;93567.47;;;13.15;89.13
11077;BME280;5591;42.626;23.380;2023-04-03T06:21:49;93556.28;;;13.20;88.62
11077;BME280;5591;42.626;23.380;2023-04-03T06:24:17;93575.47;;;13.27;87.40
11077;BME280;5591;42.626;23.380;2023-04-03T06:26:45;93572.97;;;13.14;86.84
11077;BME280;5591;42.626;23.380;2023-04-03T06:29:12;93574.72;;;13.20;86.14
11077;BME280;5591;42.626;23.380;2023-04-03T06:31:39;93582.94;;;13.48;85.25
11077;BME280;5591;42.626;23.380;2023-04-03T06:34:06;93585.34;;;13.13;85.50
11077;BME280;5591;42.626;23.380;2023-04-03T06:36:34;93585.19;;;13.44;83.82
11077;BME280;5591;42.626;23.380;2023-04-03T06:39:01;93591.50;;;13.91;81.50
11077;BME280;5591;42.626;23.380;2023-04-03T06:41:30;93584.16;;;13.93;79.55
11077;BME280;5591;42.626;23.380;2023-04-03T06:43:57;93580.28;;;14.07;79.09
11077;BME280;5591;42.626;23.380;2023-04-03T06:46:26;93578.47;;;14.37;77.28
11077;BME280;5591;42.626;23.380;2023-04-03T06:48:53;93551.16;;;14.54;76.00
11077;BME280;5591;42.626;23.380;2023-04-03T06:51:21;93583.28;;;14.10;77.04
11077;BME280;5591;42.626;23.380;2023-04-03T06:53:50;93581.00;;;14.14;77.64
11077;BME280;5591;42.626;23.380;2023-04-03T06:56:18;93582.81;;;14.31;76.57
11077;BME280;5591;42.626;23.380;2023-04-03T06:58:47;93591.97;;;14.17;76.11
11077;BME280;5591;42.626;23.380;2023-04-03T07:01:15;93597.19;;;14.47;74.61
11077;BME280;5591;42.626;23.380;2023-04-03T07:03:43;93583.22;;;14.81;73.75
11077;BME280;5591;42.626;23.380;2023-04-03T07:06:12;93580.22;;;14.54;74.04
11077;BME280;5591;42.626;23.380;2023-04-03T07:08:39;93577.94;;;14.81;73.64
11077;BME280;5591;42.626;23.380;2023-04-03T07:11:07;93570.56;;;15.05;72.86
11077;BME280;5591;42.626;23.380;2023-04-03T07:13:35;93563.66;;;15.39;71.69
11077;BME280;5591;42.626;23.380;2023-04-03T07:16:03;93564.91;;;14.33;73.95
11077;BME280;5591;42.626;23.380;2023-04-03T07:18:31;93577.97;;;12.55;88.25
11077;BME280;5591;42.626;23.380;2023-04-03T07:20:58;93513.47;;;11.73;92.82
11077;BME280;5591;42.626;23.380;2023-04-03T07:23:25;93566.94;;;12.64;93.35
11077;BME280;5591;42.626;23.380;2023-04-03T07:25:53;93560.53;;;13.98;86.67
11077;BME280;5591;42.626;23.380;2023-04-03T07:28:21;93557.44;;;14.30;82.40
11077;BME280;5591;42.626;23.380;2023-04-03T07:30:49;93563.00;;;14.86;80.54
11077;BME280;5591;42.626;23.380;2023-04-03T07:33:20;93562.47;;;13.91;82.89
11077;BME280;5591;42.626;23.380;2023-04-03T07:35:48;93549.88;;;14.45;82.50
11077;BME280;5591;42.626;23.380;2023-04-03T07:38:15;93553.88;;;14.25;82.90
11077;BME280;5591;42.626;23.380;2023-04-03T07:40:46;93512.81;;;14.40;81.30
11077;BME280;5591;42.626;23.380;2023-04-03T07:43:13;93538.50;;;15.25;77.55
11077;BME280;5591;42.626;23.380;2023-04-03T07:45:41;93546.25;;;14.92;77.72
11077;BME280;5591;42.626;23.380;2023-04-03T07:48:09;93545.53;;;14.10;81.38
11077;BME280;5591;42.626;23.380;2023-04-03T07:50:39;93571.81;;;14.57;81.16
11077;BME280;5591;42.626;23.380;2023-04-03T07:53:06;93547.38;;;14.85;78.82
11077;BME280;5591;42.626;23.380;2023-04-03T07:55:34;93542.09;;;14.96;77.33
11077;BME280;5591;42.626;23.380;2023-04-03T07:58:08;93536.09;;;12.96;85.07
11077;BME280;5591;42.626;23.380;2023-04-03T08:00:35;93548.69;;;13.59;86.94
11077;BME280;5591;42.626;23.380;2023-04-03T08:03:01;93541.84;;;15.09;80.66
11077;BME280;5591;42.626;23.380;2023-04-03T08:05:28;93547.50;;;15.63;76.54
11077;BME280;5591;42.626;23.380;2023-04-03T08:07:56;93540.34;;;16.03;74.28
11077;BME280;5591;42.626;23.380;2023-04-03T08:10:23;93537.41;;;16.33;72.14
11077;BME280;5591;42.626;23.380;2023-04-03T08:12:50;93533.81;;;16.88;69.40
11077;BME280;5591;42.626;23.380;2023-04-03T08:15:17;93520.50;;;17.21;66.06
11077;BME280;5591;42.626;23.380;2023-04-03T08:17:44;93528.47;;;17.43;64.87
11077;BME280;5591;42.626;23.380;2023-04-03T08:20:11;93535.81;;;17.57;64.32
11077;BME280;5591;42.626;23.380;2023-04-03T08:22:38;93538.56;;;17.62;64.25
11077;BME280;5591;42.626;23.380;2023-04-03T08:25:06;93497.28;;;17.12;65.33
11077;BME280;5591;42.626;23.380;2023-04-03T08:27:33;93529.84;;;17.45;64.55
11077;BME280;5591;42.626;23.380;2023-04-03T08:30:00;93494.78;;;16.84;66.31
11077;BME280;5591;42.626;23.380;2023-04-03T08:32:28;93528.72;;;17.03;66.75
11077;BME280;5591;42.626;23.380;2023-04-03T08:34:55;93536.88;;;17.56;65.53
11077;BME280;5591;42.626;23.380;2023-04-03T08:37:22;93518.69;;;17.27;64.86
11077;BME280;5591;42.626;23.380;2023-04-03T08:39:48;93526.56;;;17.22;64.36
11077;BME280;5591;42.626;23.380;2023-04-03T08:42:24;93508.28;;;17.20;64.94
11077;BME280;5591;42.626;23.380;2023-04-03T08:44:59;93513.63;;;17.25;66.09
11077;BME280;5591;42.626;23.380;2023-04-03T08:47:33;93508.81;;;17.86;63.88
11077;BME280;5591;42.626;23.380;2023-04-03T08:50:06;93504.03;;;18.36;61.52
11077;BME280;5591;42.626;23.380;2023-04-03T08:52:37;93504.25;;;18.08;61.29
11077;BME280;5591;42.626;23.380;2023-04-03T08:55:07;93495.50;;;18.34;60.51
11077;BME280;5591;42.626;23.380;2023-04-03T08:57:43;93497.81;;;18.52;59.21
11077;BME280;5591;42.626;23.380;2023-04-03T09:00:18;93501.63;;;18.66;58.67
11077;BME280;5591;42.626;23.380;2023-04-03T09:02:47;93465.69;;;18.59;57.76
11077;BME280;5591;42.626;23.380;2023-04-03T09:05:16;93497.50;;;18.85;57.18
11077;BME280;5591;42.626;23.380;2023-04-03T09:07:46;93480.06;;;18.63;57.53
11077;BME280;5591;42.626;23.380;2023-04-03T09:10:15;93483.34;;;19.16;56.80
11077;BME280;5591;42.626;23.380;2023-04-03T09:12:51;93472.69;;;19.16;56.55
11077;BME280;5591;42.626;23.380;2023-04-03T09:15:21;93449.81;;;18.32;57.90
11077;BME280;5591;42.626;23.380;2023-04-03T09:18:01;93473.75;;;18.74;57.64
11077;BME280;5591;42.626;23.380;2023-04-03T09:20:38;93442.72;;;18.84;56.75
11077;BME280;5591;42.626;23.380;2023-04-03T09:23:14;93461.16;;;19.57;55.67
11077;BME280;5591;42.626;23.380;2023-04-03T09:25:43;93453.00;;;19.79;54.69
11077;BME280;5591;42.626;23.380;2023-04-03T09:28:11;93467.88;;;19.75;52.68
11077;BME280;5591;42.626;23.380;2023-04-03T09:30:38;93452.22;;;19.83;51.24
11077;BME280;5591;42.626;23.380;2023-04-03T09:33:05;93459.94;;;19.95;50.23
11077;BME280;5591;42.626;23.380;2023-04-03T09:35:34;93453.09;;;20.19;49.74
11077;BME280;5591;42.626;23.380;2023-04-03T09:38:15;93453.38;;;20.12;50.16
11077;BME280;5591;42.626;23.380;2023-04-03T09:40:44;93455.47;;;20.20;50.63
11077;BME280;5591;42.626;23.380;2023-04-03T09:43:25;93454.75;;;19.43;50.26
11077;BME280;5591;42.626;23.380;2023-04-03T09:45:53;93450.50;;;19.52;50.11
11077;BME280;5591;42.626;23.380;2023-04-03T09:48:22;93453.25;;;19.77;48.16
11077;BME280;5591;42.626;23.380;2023-04-03T09:51:09;93451.13;;;18.66;51.54
11077;BME280;5591;42.626;23.380;2023-04-03T09:53:43;93448.78;;;18.12;53.62
11077;BME280;5591;42.626;23.380;2023-04-03T09:56:20;93440.25;;;18.31;53.21
11077;BME280;5591;42.626;23.380;2023-04-03T09:58:51;93439.28;;;18.47;52.74
11077;BME280;5591;42.626;23.380;2023-04-03T10:01:25;93433.34;;;18.35;52.62
11077;BME280;5591;42.626;23.380;2023-04-03T10:04:05;93444.00;;;18.09;52.54
11077;BME280;5591;42.626;23.380;2023-04-03T10:06:35;93444.97;;;18.61;51.04
11077;BME280;5591;42.626;23.380;2023-04-03T10:09:05;93377.69;;;17.61;51.61
11077;BME280;5591;42.626;23.380;2023-04-03T10:11:32;93431.47;;;17.52;52.55
11077;BME280;5591;42.626;23.380;2023-04-03T10:14:02;93446.31;;;17.48;52.98
11077;BME280;5591;42.626;23.380;2023-04-03T10:16:35;93444.06;;;17.18;53.45
11077;BME280;5591;42.626;23.380;2023-04-03T10:19:30;93441.31;;;17.35;53.51
11077;BME280;5591;42.626;23.380;2023-04-03T10:22:02;93434.19;;;17.83;53.30
11077;BME280;5591;42.626;23.380;2023-04-03T10:24:36;93430.22;;;17.85;52.94
11077;BME280;5591;42.626;23.380;2023-04-03T10:27:12;93431.50;;;17.30;53.28
11077;BME280;5591;42.626;23.380;2023-04-03T10:29:48;93434.13;;;17.52;53.10
11077;BME280;5591;42.626;23.380;2023-04-03T10:32:33;93428.19;;;17.66;53.34
11077;BME280;5591;42.626;23.380;2023-04-03T10:35:12;93409.06;;;17.95;52.98
11077;BME280;5591;42.626;23.380;2023-04-03T10:37:54;93421.28;;;17.91;53.15
11077;BME280;5591;42.626;23.380;2023-04-03T10:40:30;93417.91;;;17.48;54.32
11077;BME280;5591;42.626;23.380;2023-04-03T10:43:04;93329.44;;;17.11;54.35
11077;BME280;5591;42.626;23.380;2023-04-03T10:45:48;93409.75;;;17.55;54.71
11077;BME280;5591;42.626;23.380;2023-04-03T10:48:26;93405.72;;;17.04;55.34
11077;BME280;5591;42.626;23.380;2023-04-03T10:51:00;93411.25;;;17.03;56.06
11077;BME280;5591;42.626;23.380;2023-04-03T10:53:37;93409.78;;;16.90;55.82
11077;BME280;5591;42.626;23.380;2023-04-03T10:56:10;93448.47;;;16.53;57.51
11077;BME280;5591;42.626;23.380;2023-04-03T10:58:43;93418.06;;;16.23;60.45
11077;BME280;5591;42.626;23.380;2023-04-03T11:01:14;93411.06;;;16.33;61.97
11077;BME280;5591;42.626;23.380;2023-04-03T11:03:45;93419.84;;;16.50;63.75
11077;BME280;5591;42.626;23.380;2023-04-03T11:06:15;93412.34;;;16.64;64.61
11077;BME280;5591;42.626;23.380;2023-04-03T11:08:46;93419.19;;;16.43;66.69
11077;BME280;5591;42.626;23.380;2023-04-03T11:11:20;93421.28;;;16.25;70.55
11077;BME280;5591;42.626;23.380;2023-04-03T11:13:50;93428.84;;;16.16;75.00
11077;BME280;5591;42.626;23.380;2023-04-03T11:16:24;93428.03;;;15.38;81.04
11077;BME280;5591;42.626;23.380;2023-04-03T11:18:56;93418.13;;;15.78;83.01
11077;BME280;5591;42.626;23.380;2023-04-03T11:21:28;93447.72;;;15.75;87.12
11077;BME280;5591;42.626;23.380;2023-04-03T11:23:57;93415.31;;;15.68;87.07
11077;BME280;5591;42.626;23.380;2023-04-03T11:26:29;93415.66;;;15.72;89.30
11077;BME280;5591;42.626;23.380;2023-04-03T11:29:00;93394.28;;;15.45;91.29
11077;BME280;5591;42.626;23.380;2023-04-03T11:31:45;93413.91;;;15.33;95.09
11077;BME280;5591;42.626;23.380;2023-04-03T11:34:26;93412.25;;;15.60;96.70
11077;BME280;5591;42.626;23.380;2023-04-03T11:37:00;93417.72;;;15.70;97.90
11077;BME280;5591;42.626;23.380;2023-04-03T11:39:30;93420.56;;;15.52;99.47
11077;BME280;5591;42.626;23.380;2023-04-03T11:42:14;93414.78;;;14.99;100.00
11077;BME280;5591;42.626;23.380;2023-04-03T11:44:41;93423.81;;;15.14;100.00
11077;BME280;5591;42.626;23.380;2023-04-03T11:47:11;93422.69;;;15.10;100.00
11077;BME280;5591;42.626;23.380;2023-04-03T11:49:53;93422.63;;;15.22;100.00
11077;BME280;5591;42.626;23.380;2023-04-03T11:52:59;93422.00;;;14.53;100.00
11077;BME280;5591;42.626;23.380;2023-04-03T11:56:00;93405.25;;;14.24;100.00
11077;BME280;5591;42.626;23.380;2023-04-03T11:58:29;93430.94;;;14.52;100.00
11077;BME280;5591;42.626;23.380;2023-04-03T12:01:03;93389.44;;;14.24;100.00
11077;BME280;5591;42.626;23.380;2023-04-03T12:10:13;93427.34;;;13.77;100.00
11077;BME280;5591;42.626;23.380;2023-04-03T12:12:42;93390.75;;;13.69;100.00
11077;BME280;5591;42.626;23.380;2023-04-03T12:21:18;93413.16;;;14.01;100.00
11077;BME280;5591;42.626;23.380;2023-04-03T12:23:59;93415.38;;;14.27;100.00
11077;BME280;5591;42.626;23.380;2023-04-03T12:26:31;93413.75;;;14.26;100.00
11077;BME280;5591;42.626;23.380;2023-04-03T12:28:58;93410.34;;;14.37;100.00
11077;BME280;5591;42.626;23.380;2023-04-03T12:31:39;93408.69;;;14.02;100.00
11077;BME280;5591;42.626;23.380;2023-04-03T12:34:42;93405.19;;;13.67;100.00
11077;BME280;5591;42.626;23.380;2023-04-03T12:37:24;93394.34;;;13.86;100.00
11077;BME280;5591;42.626;23.380;2023-04-03T12:40:04;93394.78;;;13.83;100.00
11077;BME280;5591;42.626;23.380;2023-04-03T12:42:52;93384.59;;;13.98;100.00
11077;BME280;5591;42.626;23.380;2023-04-03T12:45:23;93376.78;;;13.80;100.00
11077;BME280;5591;42.626;23.380;2023-04-03T12:47:52;93371.16;;;13.88;100.00
11077;BME280;5591;42.626;23.380;2023-04-03T12:50:25;93371.00;;;13.49;100.00
11077;BME280;5591;42.626;23.380;2023-04-03T12:52:58;93364.75;;;13.73;100.00
11077;BME280;5591;42.626;23.380;2023-04-03T12:55:25;93370.72;;;13.91;100.00
11077;BME280;5591;42.626;23.380;2023-04-03T12:57:54;93366.63;;;13.43;100.00
11077;BME280;5591;42.626;23.380;2023-04-03T13:00:28;93375.78;;;13.29;100.00
11077;BME280;5591;42.626;23.380;2023-04-03T13:02:55;93278.38;;;12.93;100.00
11077;BME280;5591;42.626;23.380;2023-04-03T13:05:23;93376.19;;;13.55;100.00
11077;BME280;5591;42.626;23.380;2023-04-03T13:07:55;93369.50;;;13.41;100.00
11077;BME280;5591;42.626;23.380;2023-04-03T13:10:23;93375.56;;;13.42;100.00
11077;BME280;5591;42.626;23.380;2023-04-03T13:12:51;93369.94;;;13.38;100.00
11077;BME280;5591;42.626;23.380;2023-04-03T13:15:22;93371.38;;;13.23;100.00
11077;BME280;5591;42.626;23.380;2023-04-03T13:17:50;93362.03;;;13.38;100.00
11077;BME280;5591;42.626;23.380;2023-04-03T13:20:22;93341.78;;;12.98;100.00
11077;BME280;5591;42.626;23.380;2023-04-03T13:22:55;93371.81;;;13.08;100.00
11077;BME280;5591;42.626;23.380;2023-04-03T13:25:25;93356.16;;;13.13;100.00